Nesbit, Mississippi
Current Conditions -  °F | °C
As of 1:54 PM on Saturday 25 Oct 2014 (Local Time) from KMEM Reporting Station
Few Clouds Few Clouds  
Wind Chill: 80°   Ceiling: Unl
Heat Index: 81°   Visibility: 10mi
Dew Point: 62°   Wind: 6mph
Humidity: 54%   Direction: 220°SW
Pressure: 30.05"   Gusts: NA
Location:  34.88°N, 90.01°W
Report Text: KMEM 251854Z 22005KT 10SM FEW050 27/17 A3005 RMK AO2 SLP171 T02670167 $
Loading
Personal Weather Stations






























Interactive Weather Map
Tropical Storm Tracking
New forecast layout! Learn more

10-Day Weather Forecast

Advertisements
Track Severe Weather on mobile